createdAt,value
2018-01-04T19:29:27.076Z,12.00
2018-01-04T19:32:04.803Z,11.90
2018-01-04T19:34:36.448Z,11.90
2018-01-04T19:37:04.961Z,11.90
2018-01-04T19:39:35.253Z,11.70
2018-01-04T19:42:04.878Z,11.70
2018-01-04T19:44:36.136Z,11.70
2018-01-04T19:47:10.728Z,11.60
2018-01-04T19:49:39.438Z,11.50
2018-01-04T19:52:10.019Z,11.50
2018-01-04T19:54:41.792Z,11.40
2018-01-04T19:57:10.467Z,11.10
2018-01-04T19:59:38.452Z,11.10
2018-01-04T20:02:15.206Z,11.10
2018-01-04T20:04:49.964Z,11.00
2018-01-04T20:07:22.622Z,11.00
2018-01-04T20:11:02.602Z,11.00
2018-01-04T20:13:32.017Z,10.90
2018-01-04T20:16:03.333Z,10.80
2018-01-04T20:18:38.726Z,10.70
2018-01-04T20:21:07.379Z,10.70
2018-01-04T20:23:37.438Z,10.70
2018-01-04T20:26:06.312Z,10.70
2018-01-04T20:28:39.359Z,10.70
2018-01-04T20:31:15.950Z,10.60
2018-01-04T20:33:44.939Z,10.50
2018-01-04T20:36:39.574Z,10.60
2018-01-04T20:53:59.869Z,11.00
2018-01-04T20:56:44.056Z,11.00
2018-01-04T21:02:37.548Z,11.00
2018-01-04T21:05:50.290Z,10.90
2018-01-04T21:14:14.122Z,10.60
2018-01-04T21:16:42.257Z,10.60
2018-01-04T21:19:17.326Z,10.50
2018-01-04T21:25:09.455Z,10.40
2018-01-04T21:30:38.499Z,10.30
2018-01-04T21:36:08.335Z,10.10
2018-01-04T21:38:37.634Z,10.00
2018-01-04T22:09:10.888Z,9.70
2018-01-04T22:18:01.821Z,9.40
2018-01-04T22:20:41.278Z,9.40
2018-01-04T23:01:33.671Z,9.40
2018-01-04T23:06:55.474Z,9.40
2018-01-04T23:09:25.277Z,9.40
2018-01-04T23:14:58.791Z,9.30
2018-01-04T23:17:29.122Z,9.30
2018-01-04T23:32:24.515Z,9.00
2018-01-04T23:52:35.727Z,8.70
2018-01-04T23:55:11.774Z,8.80
2018-01-04T23:57:48.992Z,8.60
